sensor_id;sensor_type;location;lat;lon;timestamp;P1;durP1;ratioP1;P2;durP2;ratioP2
49444;SDS011;35323;43.080;-81.378;2023-07-20T00:00:28;2.47;;;2.22;;
49444;SDS011;35323;43.080;-81.378;2023-07-20T00:03:09;3.65;;;3.03;;
49444;SDS011;35323;43.080;-81.378;2023-07-20T00:05:38;3.92;;;2.22;;
49444;SDS011;35323;43.080;-81.378;2023-07-20T00:08:06;2.20;;;2.03;;
49444;SDS011;35323;43.080;-81.378;2023-07-20T00:10:35;4.57;;;2.60;;
49444;SDS011;35323;43.080;-81.378;2023-07-20T00:13:06;4.18;;;2.15;;
49444;SDS011;35323;43.080;-81.378;2023-07-20T00:15:37;4.38;;;2.95;;
49444;SDS011;35323;43.080;-81.378;2023-07-20T00:18:09;2.80;;;2.10;;
49444;SDS011;35323;43.080;-81.378;2023-07-20T00:20:52;3.65;;;3.03;;
49444;SDS011;35323;43.080;-81.378;2023-07-20T00:23:34;2.40;;;2.00;;
49444;SDS011;35323;43.080;-81.378;2023-07-20T00:26:05;3.22;;;2.58;;
49444;SDS011;35323;43.080;-81.378;2023-07-20T00:28:48;3.38;;;2.63;;
49444;SDS011;35323;43.080;-81.378;2023-07-20T00:34:18;2.92;;;2.35;;
49444;SDS011;35323;43.080;-81.378;2023-07-20T00:36:58;3.40;;;2.60;;
49444;SDS011;35323;43.080;-81.378;2023-07-20T00:39:31;4.20;;;3.05;;
49444;SDS011;35323;43.080;-81.378;2023-07-20T00:41:59;4.25;;;3.40;;
49444;SDS011;35323;43.080;-81.378;2023-07-20T00:44:30;4.93;;;3.30;;
49444;SDS011;35323;43.080;-81.378;2023-07-20T00:46:57;10.10;;;3.47;;
49444;SDS011;35323;43.080;-81.378;2023-07-20T00:49:28;3.00;;;2.65;;
49444;SDS011;35323;43.080;-81.378;2023-07-20T00:51:56;3.55;;;2.95;;
49444;SDS011;35323;43.080;-81.378;2023-07-20T00:54:23;3.08;;;2.40;;
49444;SDS011;35323;43.080;-81.378;2023-07-20T00:56:51;3.78;;;3.47;;
49444;SDS011;35323;43.080;-81.378;2023-07-20T00:59:20;4.68;;;3.17;;
49444;SDS011;35323;43.080;-81.378;2023-07-20T01:02:05;3.20;;;2.70;;
49444;SDS011;35323;43.080;-81.378;2023-07-20T01:04:33;3.30;;;2.78;;
49444;SDS011;35323;43.080;-81.378;2023-07-20T01:09:39;4.35;;;2.53;;
49444;SDS011;35323;43.080;-81.378;2023-07-20T01:12:30;2.35;;;2.15;;
49444;SDS011;35323;43.080;-81.378;2023-07-20T01:15:00;3.63;;;3.33;;
49444;SDS011;35323;43.080;-81.378;2023-07-20T01:17:27;2.63;;;2.38;;
49444;SDS011;35323;43.080;-81.378;2023-07-20T01:19:55;3.15;;;2.50;;
49444;SDS011;35323;43.080;-81.378;2023-07-20T01:30:25;3.35;;;2.83;;
49444;SDS011;35323;43.080;-81.378;2023-07-20T01:32:56;4.28;;;2.63;;
49444;SDS011;35323;43.080;-81.378;2023-07-20T01:35:27;3.50;;;2.47;;
49444;SDS011;35323;43.080;-81.378;2023-07-20T01:37:56;5.82;;;3.20;;
49444;SDS011;35323;43.080;-81.378;2023-07-20T01:40:25;2.83;;;2.60;;
49444;SDS011;35323;43.080;-81.378;2023-07-20T01:42:53;2.85;;;2.47;;
49444;SDS011;35323;43.080;-81.378;2023-07-20T01:45:20;4.03;;;3.28;;
49444;SDS011;35323;43.080;-81.378;2023-07-20T01:47:48;3.72;;;3.08;;
49444;SDS011;35323;43.080;-81.378;2023-07-20T01:50:16;8.30;;;3.50;;
49444;SDS011;35323;43.080;-81.378;2023-07-20T01:52:43;3.22;;;2.65;;
49444;SDS011;35323;43.080;-81.378;2023-07-20T01:55:11;4.38;;;3.05;;
49444;SDS011;35323;43.080;-81.378;2023-07-20T01:57:42;5.15;;;3.58;;
49444;SDS011;35323;43.080;-81.378;2023-07-20T02:00:09;5.53;;;3.63;;
49444;SDS011;35323;43.080;-81.378;2023-07-20T02:02:39;4.40;;;4.05;;
49444;SDS011;35323;43.080;-81.378;2023-07-20T02:05:07;8.27;;;3.00;;
49444;SDS011;35323;43.080;-81.378;2023-07-20T02:07:35;5.00;;;2.92;;
49444;SDS011;35323;43.080;-81.378;2023-07-20T02:10:02;2.85;;;2.13;;
49444;SDS011;35323;43.080;-81.378;2023-07-20T02:12:30;4.68;;;2.92;;
49444;SDS011;35323;43.080;-81.378;2023-07-20T02:14:58;3.70;;;3.00;;
49444;SDS011;35323;43.080;-81.378;2023-07-20T02:17:25;4.22;;;3.03;;
49444;SDS011;35323;43.080;-81.378;2023-07-20T02:19:53;4.40;;;2.97;;
49444;SDS011;35323;43.080;-81.378;2023-07-20T02:22:21;7.28;;;3.03;;
49444;SDS011;35323;43.080;-81.378;2023-07-20T02:24:49;2.83;;;2.20;;
49444;SDS011;35323;43.080;-81.378;2023-07-20T02:27:20;2.72;;;2.47;;
49444;SDS011;35323;43.080;-81.378;2023-07-20T02:29:48;3.38;;;2.95;;
49444;SDS011;35323;43.080;-81.378;2023-07-20T02:32:15;3.50;;;2.67;;
49444;SDS011;35323;43.080;-81.378;2023-07-20T02:34:43;3.38;;;2.50;;
49444;SDS011;35323;43.080;-81.378;2023-07-20T02:37:11;19.42;;;3.33;;
49444;SDS011;35323;43.080;-81.378;2023-07-20T02:39:40;2.67;;;2.47;;
49444;SDS011;35323;43.080;-81.378;2023-07-20T02:42:07;4.65;;;3.30;;
49444;SDS011;35323;43.080;-81.378;2023-07-20T02:44:35;2.67;;;2.03;;
49444;SDS011;35323;43.080;-81.378;2023-07-20T02:47:03;3.92;;;3.17;;
49444;SDS011;35323;43.080;-81.378;2023-07-20T02:49:31;3.13;;;1.73;;
49444;SDS011;35323;43.080;-81.378;2023-07-20T02:51:59;4.75;;;3.15;;
49444;SDS011;35323;43.080;-81.378;2023-07-20T02:54:26;4.13;;;2.70;;
49444;SDS011;35323;43.080;-81.378;2023-07-20T02:56:54;4.65;;;2.47;;
49444;SDS011;35323;43.080;-81.378;2023-07-20T02:59:22;5.05;;;3.10;;
49444;SDS011;35323;43.080;-81.378;2023-07-20T03:01:50;3.50;;;2.42;;
49444;SDS011;35323;43.080;-81.378;2023-07-20T03:04:17;2.67;;;2.33;;
49444;SDS011;35323;43.080;-81.378;2023-07-20T03:06:49;4.10;;;2.80;;
49444;SDS011;35323;43.080;-81.378;2023-07-20T03:09:17;5.35;;;2.80;;
49444;SDS011;35323;43.080;-81.378;2023-07-20T03:11:44;2.92;;;2.58;;
49444;SDS011;35323;43.080;-81.378;2023-07-20T03:14:12;2.85;;;2.10;;
49444;SDS011;35323;43.080;-81.378;2023-07-20T03:16:42;3.58;;;2.53;;
49444;SDS011;35323;43.080;-81.378;2023-07-20T03:19:12;3.65;;;3.05;;
49444;SDS011;35323;43.080;-81.378;2023-07-20T03:21:40;3.38;;;2.65;;
49444;SDS011;35323;43.080;-81.378;2023-07-20T03:24:08;3.30;;;2.45;;
49444;SDS011;35323;43.080;-81.378;2023-07-20T03:26:39;4.30;;;3.47;;
49444;SDS011;35323;43.080;-81.378;2023-07-20T03:29:06;3.97;;;2.53;;
49444;SDS011;35323;43.080;-81.378;2023-07-20T03:31:35;5.88;;;2.65;;
49444;SDS011;35323;43.080;-81.378;2023-07-20T03:34:03;3.03;;;2.17;;
49444;SDS011;35323;43.080;-81.378;2023-07-20T03:36:31;2.72;;;2.38;;
49444;SDS011;35323;43.080;-81.378;2023-07-20T03:38:58;4.10;;;2.50;;
49444;SDS011;35323;43.080;-81.378;2023-07-20T03:41:26;3.58;;;2.67;;
49444;SDS011;35323;43.080;-81.378;2023-07-20T03:43:54;6.70;;;4.57;;
49444;SDS011;35323;43.080;-81.378;2023-07-20T03:46:22;3.80;;;2.50;;
49444;SDS011;35323;43.080;-81.378;2023-07-20T03:48:52;3.53;;;2.63;;
49444;SDS011;35323;43.080;-81.378;2023-07-20T03:51:19;3.85;;;2.85;;
49444;SDS011;35323;43.080;-81.378;2023-07-20T03:53:47;3.22;;;2.20;;
49444;SDS011;35323;43.080;-81.378;2023-07-20T03:56:15;4.68;;;2.53;;
49444;SDS011;35323;43.080;-81.378;2023-07-20T03:58:43;4.35;;;3.42;;
49444;SDS011;35323;43.080;-81.378;2023-07-20T04:01:10;2.97;;;2.03;;
49444;SDS011;35323;43.080;-81.378;2023-07-20T04:03:38;4.53;;;2.40;;
49444;SDS011;35323;43.080;-81.378;2023-07-20T04:06:06;3.30;;;3.00;;
49444;SDS011;35323;43.080;-81.378;2023-07-20T04:08:35;3.80;;;2.75;;
49444;SDS011;35323;43.080;-81.378;2023-07-20T04:11:03;4.88;;;2.17;;
49444;SDS011;35323;43.080;-81.378;2023-07-20T04:13:30;2.53;;;2.33;;
49444;SDS011;35323;43.080;-81.378;2023-07-20T04:16:01;3.10;;;2.80;;
49444;SDS011;35323;43.080;-81.378;2023-07-20T04:18:30;2.90;;;2.33;;
49444;SDS011;35323;43.080;-81.378;2023-07-20T04:20:57;3.28;;;2.58;;
49444;SDS011;35323;43.080;-81.378;2023-07-20T04:23:25;2.80;;;2.20;;
49444;SDS011;35323;43.080;-81.378;2023-07-20T04:25:53;3.22;;;2.30;;
49444;SDS011;35323;43.080;-81.378;2023-07-20T04:28:20;4.30;;;2.45;;
49444;SDS011;35323;43.080;-81.378;2023-07-20T04:30:48;3.83;;;2.60;;
49444;SDS011;35323;43.080;-81.378;2023-07-20T04:33:21;2.85;;;2.53;;
49444;SDS011;35323;43.080;-81.378;2023-07-20T04:35:52;3.20;;;2.17;;
49444;SDS011;35323;43.080;-81.378;2023-07-20T04:38:21;3.63;;;2.33;;
49444;SDS011;35323;43.080;-81.378;2023-07-20T04:40:49;4.03;;;2.90;;
49444;SDS011;35323;43.080;-81.378;2023-07-20T04:43:17;4.32;;;2.25;;
49444;SDS011;35323;43.080;-81.378;2023-07-20T04:45:45;3.67;;;3.25;;
49444;SDS011;35323;43.080;-81.378;2023-07-20T04:48:14;3.10;;;2.30;;
49444;SDS011;35323;43.080;-81.378;2023-07-20T04:50:44;4.30;;;3.67;;
49444;SDS011;35323;43.080;-81.378;2023-07-20T04:53:14;6.10;;;4.35;;
49444;SDS011;35323;43.080;-81.378;2023-07-20T04:55:47;6.15;;;3.58;;
49444;SDS011;35323;43.080;-81.378;2023-07-20T04:58:20;5.05;;;2.42;;
49444;SDS011;35323;43.080;-81.378;2023-07-20T05:00:48;3.65;;;3.08;;
49444;SDS011;35323;43.080;-81.378;2023-07-20T05:03:16;3.83;;;3.40;;
49444;SDS011;35323;43.080;-81.378;2023-07-20T05:05:44;4.05;;;2.67;;
49444;SDS011;35323;43.080;-81.378;2023-07-20T05:08:15;4.70;;;2.90;;
49444;SDS011;35323;43.080;-81.378;2023-07-20T05:10:43;3.63;;;3.30;;
49444;SDS011;35323;43.080;-81.378;2023-07-20T05:13:11;3.60;;;2.65;;
49444;SDS011;35323;43.080;-81.378;2023-07-20T05:15:38;4.28;;;3.33;;
49444;SDS011;35323;43.080;-81.378;2023-07-20T05:18:06;4.05;;;3.65;;
49444;SDS011;35323;43.080;-81.378;2023-07-20T05:20:35;3.78;;;2.80;;
49444;SDS011;35323;43.080;-81.378;2023-07-20T05:23:02;4.45;;;3.70;;
49444;SDS011;35323;43.080;-81.378;2023-07-20T05:25:33;4.57;;;2.47;;
49444;SDS011;35323;43.080;-81.378;2023-07-20T05:28:01;5.45;;;3.10;;
49444;SDS011;35323;43.080;-81.378;2023-07-20T05:30:30;6.10;;;3.67;;
49444;SDS011;35323;43.080;-81.378;2023-07-20T05:32:58;3.10;;;2.88;;
49444;SDS011;35323;43.080;-81.378;2023-07-20T05:35:28;6.55;;;3.78;;
49444;SDS011;35323;43.080;-81.378;2023-07-20T05:37:56;3.97;;;2.35;;
49444;SDS011;35323;43.080;-81.378;2023-07-20T05:40:24;4.03;;;3.15;;
49444;SDS011;35323;43.080;-81.378;2023-07-20T05:42:52;3.45;;;2.92;;
49444;SDS011;35323;43.080;-81.378;2023-07-20T05:45:21;3.75;;;3.42;;
49444;SDS011;35323;43.080;-81.378;2023-07-20T05:47:48;4.03;;;3.63;;
49444;SDS011;35323;43.080;-81.378;2023-07-20T05:50:16;3.10;;;2.63;;
49444;SDS011;35323;43.080;-81.378;2023-07-20T05:52:44;4.65;;;3.40;;
49444;SDS011;35323;43.080;-81.378;2023-07-20T05:55:12;3.03;;;2.75;;
49444;SDS011;35323;43.080;-81.378;2023-07-20T05:57:39;4.10;;;3.42;;
49444;SDS011;35323;43.080;-81.378;2023-07-20T06:00:09;3.60;;;3.30;;
49444;SDS011;35323;43.080;-81.378;2023-07-20T06:02:40;4.43;;;3.17;;
49444;SDS011;35323;43.080;-81.378;2023-07-20T06:05:08;3.60;;;3.30;;
49444;SDS011;35323;43.080;-81.378;2023-07-20T06:07:41;4.70;;;3.90;;
49444;SDS011;35323;43.080;-81.378;2023-07-20T06:10:09;3.20;;;2.80;;
49444;SDS011;35323;43.080;-81.378;2023-07-20T06:12:37;4.55;;;4.15;;
49444;SDS011;35323;43.080;-81.378;2023-07-20T06:15:05;13.63;;;4.75;;
49444;SDS011;35323;43.080;-81.378;2023-07-20T06:17:32;3.53;;;3.15;;
49444;SDS011;35323;43.080;-81.378;2023-07-20T06:20:00;3.97;;;2.97;;
49444;SDS011;35323;43.080;-81.378;2023-07-20T06:22:29;3.90;;;3.20;;
49444;SDS011;35323;43.080;-81.378;2023-07-20T06:24:57;4.18;;;3.35;;
49444;SDS011;35323;43.080;-81.378;2023-07-20T06:27:24;4.38;;;3.95;;
49444;SDS011;35323;43.080;-81.378;2023-07-20T06:29:52;4.85;;;3.28;;
49444;SDS011;35323;43.080;-81.378;2023-07-20T06:32:20;5.10;;;3.17;;
49444;SDS011;35323;43.080;-81.378;2023-07-20T06:34:48;4.05;;;2.97;;
49444;SDS011;35323;43.080;-81.378;2023-07-20T06:37:16;2.75;;;2.55;;
49444;SDS011;35323;43.080;-81.378;2023-07-20T06:39:44;5.53;;;4.18;;
49444;SDS011;35323;43.080;-81.378;2023-07-20T06:42:14;7.05;;;4.15;;
49444;SDS011;35323;43.080;-81.378;2023-07-20T06:44:42;4.90;;;3.65;;
49444;SDS011;35323;43.080;-81.378;2023-07-20T06:47:10;3.95;;;3.20;;
49444;SDS011;35323;43.080;-81.378;2023-07-20T06:49:38;4.47;;;3.70;;
49444;SDS011;35323;43.080;-81.378;2023-07-20T06:52:06;4.85;;;4.10;;
49444;SDS011;35323;43.080;-81.378;2023-07-20T06:54:34;4.93;;;3.33;;
49444;SDS011;35323;43.080;-81.378;2023-07-20T06:57:02;4.40;;;3.85;;
49444;SDS011;35323;43.080;-81.378;2023-07-20T06:59:33;5.25;;;4.30;;
49444;SDS011;35323;43.080;-81.378;2023-07-20T07:02:07;7.07;;;4.82;;
49444;SDS011;35323;43.080;-81.378;2023-07-20T07:04:41;4.20;;;3.58;;
49444;SDS011;35323;43.080;-81.378;2023-07-20T07:07:09;6.35;;;4.05;;
49444;SDS011;35323;43.080;-81.378;2023-07-20T07:09:37;4.28;;;3.53;;
49444;SDS011;35323;43.080;-81.378;2023-07-20T07:12:04;4.88;;;3.55;;
49444;SDS011;35323;43.080;-81.378;2023-07-20T07:14:33;5.97;;;5.47;;
49444;SDS011;35323;43.080;-81.378;2023-07-20T07:17:00;6.90;;;4.80;;
49444;SDS011;35323;43.080;-81.378;2023-07-20T07:19:31;4.57;;;4.18;;
49444;SDS011;35323;43.080;-81.378;2023-07-20T07:21:59;5.35;;;4.53;;
49444;SDS011;35323;43.080;-81.378;2023-07-20T07:24:26;5.22;;;4.10;;
49444;SDS011;35323;43.080;-81.378;2023-07-20T07:27:00;10.02;;;5.07;;
49444;SDS011;35323;43.080;-81.378;2023-07-20T07:29:28;6.57;;;5.30;;
49444;SDS011;35323;43.080;-81.378;2023-07-20T07:31:56;7.20;;;4.63;;
49444;SDS011;35323;43.080;-81.378;2023-07-20T07:34:25;5.40;;;4.90;;
49444;SDS011;35323;43.080;-81.378;2023-07-20T07:36:53;5.75;;;4.55;;
49444;SDS011;35323;43.080;-81.378;2023-07-20T07:39:21;6.05;;;4.30;;
49444;SDS011;35323;43.080;-81.378;2023-07-20T07:41:51;5.55;;;4.68;;
49444;SDS011;35323;43.080;-81.378;2023-07-20T07:44:19;9.13;;;4.22;;
49444;SDS011;35323;43.080;-81.378;2023-07-20T07:46:48;5.57;;;4.80;;
49444;SDS011;35323;43.080;-81.378;2023-07-20T07:49:16;6.28;;;4.93;;
49444;SDS011;35323;43.080;-81.378;2023-07-20T07:51:45;6.75;;;5.07;;
49444;SDS011;35323;43.080;-81.378;2023-07-20T07:54:13;6.45;;;5.47;;
49444;SDS011;35323;43.080;-81.378;2023-07-20T07:56:41;8.68;;;4.65;;
49444;SDS011;35323;43.080;-81.378;2023-07-20T07:59:09;6.90;;;5.28;;
49444;SDS011;35323;43.080;-81.378;2023-07-20T08:01:38;8.93;;;5.22;;
49444;SDS011;35323;43.080;-81.378;2023-07-20T08:04:05;7.15;;;5.85;;
49444;SDS011;35323;43.080;-81.378;2023-07-20T08:06:33;5.93;;;4.97;;
49444;SDS011;35323;43.080;-81.378;2023-07-20T08:09:01;5.85;;;4.53;;
49444;SDS011;35323;43.080;-81.378;2023-07-20T08:11:29;11.30;;;4.82;;
49444;SDS011;35323;43.080;-81.378;2023-07-20T08:14:00;7.22;;;5.32;;
49444;SDS011;35323;43.080;-81.378;2023-07-20T08:16:28;5.68;;;5.13;;
49444;SDS011;35323;43.080;-81.378;2023-07-20T08:18:56;6.45;;;4.45;;
49444;SDS011;35323;43.080;-81.378;2023-07-20T08:21:27;4.90;;;4.40;;
49444;SDS011;35323;43.080;-81.378;2023-07-20T08:23:54;5.32;;;4.30;;
49444;SDS011;35323;43.080;-81.378;2023-07-20T08:26:23;5.13;;;4.32;;
49444;SDS011;35323;43.080;-81.378;2023-07-20T08:28:51;7.32;;;5.00;;
49444;SDS011;35323;43.080;-81.378;2023-07-20T08:31:19;4.63;;;4.10;;
49444;SDS011;35323;43.080;-81.378;2023-07-20T08:33:47;4.60;;;3.92;;
49444;SDS011;35323;43.080;-81.378;2023-07-20T08:36:14;5.75;;;4.07;;
49444;SDS011;35323;43.080;-81.378;2023-07-20T08:38:42;7.90;;;4.60;;
49444;SDS011;35323;43.080;-81.378;2023-07-20T08:41:09;11.35;;;6.15;;
49444;SDS011;35323;43.080;-81.378;2023-07-20T08:43:37;5.43;;;4.53;;
49444;SDS011;35323;43.080;-81.378;2023-07-20T08:46:07;7.13;;;5.90;;
49444;SDS011;35323;43.080;-81.378;2023-07-20T08:48:35;6.38;;;4.22;;
49444;SDS011;35323;43.080;-81.378;2023-07-20T08:51:02;7.43;;;5.68;;
49444;SDS011;35323;43.080;-81.378;2023-07-20T08:53:32;5.40;;;4.90;;
49444;SDS011;35323;43.080;-81.378;2023-07-20T08:56:00;5.57;;;5.00;;
49444;SDS011;35323;43.080;-81.378;2023-07-20T08:58:29;4.65;;;3.80;;
49444;SDS011;35323;43.080;-81.378;2023-07-20T09:00:57;7.53;;;5.20;;
49444;SDS011;35323;43.080;-81.378;2023-07-20T09:03:27;6.88;;;5.20;;
49444;SDS011;35323;43.080;-81.378;2023-07-20T09:05:55;5.38;;;4.32;;
49444;SDS011;35323;43.080;-81.378;2023-07-20T09:08:23;14.75;;;5.07;;
49444;SDS011;35323;43.080;-81.378;2023-07-20T09:10:51;5.30;;;4.80;;
49444;SDS011;35323;43.080;-81.378;2023-07-20T09:13:18;6.10;;;5.05;;
49444;SDS011;35323;43.080;-81.378;2023-07-20T09:15:47;5.45;;;4.82;;
49444;SDS011;35323;43.080;-81.378;2023-07-20T09:18:27;8.80;;;4.75;;
49444;SDS011;35323;43.080;-81.378;2023-07-20T09:20:59;6.78;;;4.05;;
49444;SDS011;35323;43.080;-81.378;2023-07-20T09:23:32;5.90;;;4.55;;
49444;SDS011;35323;43.080;-81.378;2023-07-20T09:26:00;5.43;;;4.63;;
49444;SDS011;35323;43.080;-81.378;2023-07-20T09:28:28;5.22;;;4.28;;
49444;SDS011;35323;43.080;-81.378;2023-07-20T09:30:55;6.00;;;5.18;;
49444;SDS011;35323;43.080;-81.378;2023-07-20T09:33:24;6.45;;;4.45;;
49444;SDS011;35323;43.080;-81.378;2023-07-20T09:35:54;7.90;;;5.57;;
49444;SDS011;35323;43.080;-81.378;2023-07-20T09:38:27;5.45;;;4.07;;
49444;SDS011;35323;43.080;-81.378;2023-07-20T09:41:15;5.53;;;4.80;;
49444;SDS011;35323;43.080;-81.378;2023-07-20T09:43:55;4.63;;;4.03;;
49444;SDS011;35323;43.080;-81.378;2023-07-20T09:46:23;4.03;;;3.63;;
49444;SDS011;35323;43.080;-81.378;2023-07-20T09:48:54;5.18;;;4.57;;
49444;SDS011;35323;43.080;-81.378;2023-07-20T09:51:24;6.57;;;4.28;;
49444;SDS011;35323;43.080;-81.378;2023-07-20T09:53:52;4.18;;;3.78;;
49444;SDS011;35323;43.080;-81.378;2023-07-20T09:56:21;7.50;;;4.45;;
49444;SDS011;35323;43.080;-81.378;2023-07-20T09:58:52;4.82;;;4.13;;
49444;SDS011;35323;43.080;-81.378;2023-07-20T10:01:20;6.57;;;3.72;;
49444;SDS011;35323;43.080;-81.378;2023-07-20T10:03:52;5.63;;;4.20;;
49444;SDS011;35323;43.080;-81.378;2023-07-20T10:06:23;5.20;;;4.72;;
49444;SDS011;35323;43.080;-81.378;2023-07-20T10:08:55;5.03;;;3.67;;
49444;SDS011;35323;43.080;-81.378;2023-07-20T10:11:23;4.75;;;3.65;;
49444;SDS011;35323;43.080;-81.378;2023-07-20T10:13:55;6.75;;;4.40;;
49444;SDS011;35323;43.080;-81.378;2023-07-20T10:16:28;4.50;;;3.95;;
49444;SDS011;35323;43.080;-81.378;2023-07-20T10:19:03;4.93;;;4.30;;
49444;SDS011;35323;43.080;-81.378;2023-07-20T10:21:47;4.65;;;3.70;;
49444;SDS011;35323;43.080;-81.378;2023-07-20T10:24:21;5.05;;;3.35;;
49444;SDS011;35323;43.080;-81.378;2023-07-20T10:26:50;5.38;;;4.68;;
49444;SDS011;35323;43.080;-81.378;2023-07-20T10:29:18;5.75;;;4.25;;
49444;SDS011;35323;43.080;-81.378;2023-07-20T10:31:46;10.27;;;4.75;;
49444;SDS011;35323;43.080;-81.378;2023-07-20T10:34:14;5.55;;;4.05;;
49444;SDS011;35323;43.080;-81.378;2023-07-20T10:36:45;4.20;;;3.78;;
49444;SDS011;35323;43.080;-81.378;2023-07-20T10:39:26;5.30;;;4.13;;
49444;SDS011;35323;43.080;-81.378;2023-07-20T10:44:29;4.35;;;3.70;;
49444;SDS011;35323;43.080;-81.378;2023-07-20T10:47:01;5.75;;;4.20;;
49444;SDS011;35323;43.080;-81.378;2023-07-20T10:49:32;5.57;;;3.60;;
49444;SDS011;35323;43.080;-81.378;2023-07-20T10:52:03;5.32;;;4.82;;
49444;SDS011;35323;43.080;-81.378;2023-07-20T10:59:52;5.15;;;3.85;;
49444;SDS011;35323;43.080;-81.378;2023-07-20T11:07:57;3.40;;;3.08;;
49444;SDS011;35323;43.080;-81.378;2023-07-20T11:10:25;5.15;;;3.58;;
49444;SDS011;35323;43.080;-81.378;2023-07-20T11:15:44;5.22;;;4.05;;
49444;SDS011;35323;43.080;-81.378;2023-07-20T11:18:14;3.92;;;3.03;;
49444;SDS011;35323;43.080;-81.378;2023-07-20T11:20:42;4.38;;;3.53;;
49444;SDS011;35323;43.080;-81.378;2023-07-20T11:23:09;5.28;;;3.28;;
49444;SDS011;35323;43.080;-81.378;2023-07-20T11:25:38;4.65;;;4.25;;
49444;SDS011;35323;43.080;-81.378;2023-07-20T11:28:06;4.85;;;3.33;;
49444;SDS011;35323;43.080;-81.378;2023-07-20T11:30:34;5.00;;;4.25;;
49444;SDS011;35323;43.080;-81.378;2023-07-20T11:33:02;6.72;;;4.95;;
49444;SDS011;35323;43.080;-81.378;2023-07-20T11:35:30;5.70;;;3.00;;
49444;SDS011;35323;43.080;-81.378;2023-07-20T11:37:57;5.32;;;3.00;;
49444;SDS011;35323;43.080;-81.378;2023-07-20T11:40:31;5.28;;;4.18;;
49444;SDS011;35323;43.080;-81.378;2023-07-20T11:42:59;4.07;;;2.50;;
49444;SDS011;35323;43.080;-81.378;2023-07-20T11:45:29;4.50;;;4.10;;
49444;SDS011;35323;43.080;-81.378;2023-07-20T11:48:00;6.03;;;3.83;;
49444;SDS011;35323;43.080;-81.378;2023-07-20T11:50:28;3.83;;;2.67;;
49444;SDS011;35323;43.080;-81.378;2023-07-20T11:52:56;4.45;;;3.67;;
49444;SDS011;35323;43.080;-81.378;2023-07-20T11:55:23;3.92;;;2.72;;
49444;SDS011;35323;43.080;-81.378;2023-07-20T11:58:07;4.45;;;3.60;;
49444;SDS011;35323;43.080;-81.378;2023-07-20T12:00:37;4.10;;;3.38;;
49444;SDS011;35323;43.080;-81.378;2023-07-20T12:03:05;5.93;;;2.92;;
49444;SDS011;35323;43.080;-81.378;2023-07-20T12:05:34;6.13;;;4.60;;
49444;SDS011;35323;43.080;-81.378;2023-07-20T12:08:21;5.40;;;3.17;;
49444;SDS011;35323;43.080;-81.378;2023-07-20T12:10:48;3.53;;;3.22;;
49444;SDS011;35323;43.080;-81.378;2023-07-20T12:13:17;4.15;;;2.50;;
49444;SDS011;35323;43.080;-81.378;2023-07-20T12:15:44;3.75;;;3.13;;
49444;SDS011;35323;43.080;-81.378;2023-07-20T12:18:13;5.28;;;3.80;;
49444;SDS011;35323;43.080;-81.378;2023-07-20T12:20:40;3.03;;;2.58;;
49444;SDS011;35323;43.080;-81.378;2023-07-20T12:23:09;4.38;;;2.88;;
49444;SDS011;35323;43.080;-81.378;2023-07-20T12:25:37;5.30;;;3.83;;
49444;SDS011;35323;43.080;-81.378;2023-07-20T12:28:10;3.75;;;3.00;;
49444;SDS011;35323;43.080;-81.378;2023-07-20T12:30:38;4.47;;;3.13;;
49444;SDS011;35323;43.080;-81.378;2023-07-20T12:33:06;5.85;;;3.50;;
49444;SDS011;35323;43.080;-81.378;2023-07-20T12:35:34;4.15;;;3.00;;
49444;SDS011;35323;43.080;-81.378;2023-07-20T12:38:02;3.38;;;2.75;;
49444;SDS011;35323;43.080;-81.378;2023-07-20T12:40:29;4.47;;;3.45;;
49444;SDS011;35323;43.080;-81.378;2023-07-20T12:42:57;4.63;;;3.15;;
49444;SDS011;35323;43.080;-81.378;2023-07-20T12:45:25;4.43;;;3.25;;
49444;SDS011;35323;43.080;-81.378;2023-07-20T12:47:53;7.65;;;3.72;;
49444;SDS011;35323;43.080;-81.378;2023-07-20T12:50:21;3.72;;;3.42;;
49444;SDS011;35323;43.080;-81.378;2023-07-20T12:52:48;3.72;;;3.15;;
49444;SDS011;35323;43.080;-81.378;2023-07-20T12:55:16;3.92;;;3.17;;
49444;SDS011;35323;43.080;-81.378;2023-07-20T12:57:45;3.33;;;2.97;;
49444;SDS011;35323;43.080;-81.378;2023-07-20T13:00:13;6.13;;;4.05;;
49444;SDS011;35323;43.080;-81.378;2023-07-20T13:02:41;4.40;;;3.58;;
49444;SDS011;35323;43.080;-81.378;2023-07-20T13:05:10;4.55;;;3.92;;
49444;SDS011;35323;43.080;-81.378;2023-07-20T13:07:38;4.32;;;2.83;;
49444;SDS011;35323;43.080;-81.378;2023-07-20T13:10:09;6.28;;;3.20;;
49444;SDS011;35323;43.080;-81.378;2023-07-20T13:12:42;5.45;;;3.03;;
49444;SDS011;35323;43.080;-81.378;2023-07-20T13:15:09;4.07;;;2.60;;
49444;SDS011;35323;43.080;-81.378;2023-07-20T13:17:38;6.00;;;4.07;;
49444;SDS011;35323;43.080;-81.378;2023-07-20T13:20:07;4.80;;;4.15;;
49444;SDS011;35323;43.080;-81.378;2023-07-20T13:22:37;4.95;;;3.55;;
49444;SDS011;35323;43.080;-81.378;2023-07-20T13:25:05;4.63;;;3.20;;
49444;SDS011;35323;43.080;-81.378;2023-07-20T13:27:33;4.13;;;3.83;;
49444;SDS011;35323;43.080;-81.378;2023-07-20T13:30:01;3.90;;;2.95;;
49444;SDS011;35323;43.080;-81.378;2023-07-20T13:32:36;3.00;;;2.45;;
49444;SDS011;35323;43.080;-81.378;2023-07-20T13:35:04;5.90;;;4.00;;
49444;SDS011;35323;43.080;-81.378;2023-07-20T13:37:32;3.92;;;3.15;;
49444;SDS011;35323;43.080;-81.378;2023-07-20T13:40:03;3.67;;;2.87;;
49444;SDS011;35323;43.080;-81.378;2023-07-20T13:42:33;4.57;;;2.60;;
49444;SDS011;35323;43.080;-81.378;2023-07-20T13:45:01;4.75;;;3.20;;
49444;SDS011;35323;43.080;-81.378;2023-07-20T13:47:32;4.68;;;3.50;;
49444;SDS011;35323;43.080;-81.378;2023-07-20T13:50:03;2.75;;;2.50;;
49444;SDS011;35323;43.080;-81.378;2023-07-20T13:52:30;4.53;;;3.35;;
49444;SDS011;35323;43.080;-81.378;2023-07-20T13:55:01;4.07;;;2.97;;
49444;SDS011;35323;43.080;-81.378;2023-07-20T13:57:31;3.22;;;2.80;;
49444;SDS011;35323;43.080;-81.378;2023-07-20T14:00:01;3.75;;;3.13;;
49444;SDS011;35323;43.080;-81.378;2023-07-20T14:02:35;5.07;;;4.28;;
49444;SDS011;35323;43.080;-81.378;2023-07-20T14:05:06;3.75;;;2.65;;
49444;SDS011;35323;43.080;-81.378;2023-07-20T14:07:37;2.90;;;2.50;;
49444;SDS011;35323;43.080;-81.378;2023-07-20T14:10:05;5.72;;;3.70;;
49444;SDS011;35323;43.080;-81.378;2023-07-20T14:12:35;6.03;;;3.25;;
49444;SDS011;35323;43.080;-81.378;2023-07-20T14:15:04;6.88;;;3.55;;
49444;SDS011;35323;43.080;-81.378;2023-07-20T14:17:33;3.47;;;2.72;;
49444;SDS011;35323;43.080;-81.378;2023-07-20T14:20:01;3.85;;;2.35;;
49444;SDS011;35323;43.080;-81.378;2023-07-20T14:22:47;10.68;;;3.38;;
49444;SDS011;35323;43.080;-81.378;2023-07-20T14:25:17;3.47;;;3.15;;
49444;SDS011;35323;43.080;-81.378;2023-07-20T14:27:46;3.95;;;3.55;;
49444;SDS011;35323;43.080;-81.378;2023-07-20T14:30:13;4.57;;;3.10;;
49444;SDS011;35323;43.080;-81.378;2023-07-20T14:32:41;4.70;;;2.95;;
49444;SDS011;35323;43.080;-81.378;2023-07-20T14:35:08;5.45;;;3.15;;
49444;SDS011;35323;43.080;-81.378;2023-07-20T14:37:39;6.28;;;4.20;;
49444;SDS011;35323;43.080;-81.378;2023-07-20T14:40:07;3.67;;;3.28;;
49444;SDS011;35323;43.080;-81.378;2023-07-20T14:42:35;5.45;;;3.53;;
49444;SDS011;35323;43.080;-81.378;2023-07-20T14:45:03;4.18;;;2.60;;
49444;SDS011;35323;43.080;-81.378;2023-07-20T14:47:32;5.20;;;3.97;;
49444;SDS011;35323;43.080;-81.378;2023-07-20T14:50:03;4.63;;;3.30;;
49444;SDS011;35323;43.080;-81.378;2023-07-20T14:52:31;3.20;;;2.90;;
49444;SDS011;35323;43.080;-81.378;2023-07-20T14:54:58;4.05;;;3.25;;
49444;SDS011;35323;43.080;-81.378;2023-07-20T14:57:26;6.70;;;4.28;;
49444;SDS011;35323;43.080;-81.378;2023-07-20T14:59:54;3.85;;;3.28;;
49444;SDS011;35323;43.080;-81.378;2023-07-20T15:02:21;4.43;;;2.97;;